• Join FlightAware (Why Join?)
  • Login
  • US Flag 
12:47AM EDT


 

Airport Tracker/Info


-or-


 

Live Flight TrackerFlight Track Log ✈ JST526 ✈ 17-Apr-2013 ✈ YMML / MEL - YSSY / SYD

Flight Track Log - Related Links

Times and Time Zones

All times are in EDT time to prevent confusion due to time zone crossing. See the JST526 flight status page for this flight to view local times or setup timezone preferences in your user account.

Time Position Orientation Groundspeed Altitude Reporting Facility
EDT Latitude Longitude Course Direction KTS MPH feet Rate Location/Type
06:24AM -37.6610 144.8230 274° West 158 182 600  Level FlightAware
06:24AM -37.6590 144.8000 276° West 163 188 1,600 1,920 Climbing FlightAware
06:24AM -37.6580 144.7870 276° West 178 205 1,900 1,200 Climbing FlightAware
06:25AM -37.6560 144.7620 276° West 208 239 2,300 1,500 Climbing FlightAware
06:25AM -37.6541 144.7321 276° West 214 246 2,900 2,160 Climbing Aus ATC (RADAR)
06:25AM -37.6440 144.6970 276° West 264 304 4,100 2,580 Climbing FlightAware
06:26AM -37.6350 144.6880 322° Northwest 265 305 4,700 3,840 Climbing FlightAware
06:26AM -37.6160 144.6790 339° North 271 312 5,700 3,300 Climbing FlightAware
06:26AM -37.5800 144.6640 342° North 288 331 7,200 3,240 Climbing FlightAware
06:27AM -37.5550 144.6570 347° North 291 335 8,400 3,420 Climbing FlightAware
06:27AM -37.5220 144.6720 20° North 299 344 9,800 3,240 Climbing FlightAware
06:27AM -37.5130 144.6880 55° Northeast 297 342 10,300 1,920 Climbing FlightAware
06:28AM -37.4785 144.7604 55° Northeast 338 389 11,400 1,440 Climbing Aus ATC (RADAR)
06:28AM -37.4770 144.7640 55° Northeast 349 402 11,400 2,880 Level FlightAware
06:29AM -37.4393 144.8405 55° Northeast 359 413 13,600 2,700 Climbing Aus ATC (RADAR)
06:29AM -37.4450 144.8280 55° Northeast 355 409 13,200 2,520 Descending FlightAware
06:29AM -37.4034 144.9132 55° Northeast 369 425 15,300 2,760 Climbing Aus ATC (RADAR)
06:29AM -37.4020 144.9170 55° Northeast 374 430 15,300 2,400 Level FlightAware
06:30AM -37.3712 144.9784 55° Northeast 379 436 16,700 2,100 Climbing Aus ATC (RADAR)
06:30AM -37.3680 144.9860 55° Northeast 379 436 16,700 2,220 Level FlightAware
06:31AM -37.3191 145.0838 55° Northeast 392 451 18,700 2,520 Climbing Aus ATC (RADAR)
06:31AM -37.3200 145.0820 55° Northeast 396 456 18,600 1,740 Descending FlightAware
06:32AM -37.2770 145.1690 58° Northeast 404 465 20,100 1,860 Climbing FlightAware
06:32AM -37.2370 145.2500 58° Northeast 413 475 21,300 1,980 Climbing FlightAware
06:33AM -37.2150 145.2941 58° Northeast 414 476 22,100 1,860 Climbing Aus ATC (RADAR)
06:33AM -37.1900 145.3440 58° Northeast 420 483 22,700 1,440 Climbing FlightAware
06:34AM -37.1490 145.4230 57° Northeast 427 491 23,700 1,620 Climbing FlightAware
06:34AM -37.1116 145.4876 57° Northeast 428 493 24,600 1,680 Climbing Aus ATC (RADAR)
06:34AM -37.0950 145.5170 57° Northeast 431 496 25,000 1,680 Climbing FlightAware
06:35AM -37.0529 145.5895 57° Northeast 435 501 26,000 1,500 Climbing Aus ATC (RADAR)
06:35AM -37.0480 145.5990 57° Northeast 438 504 26,000 1,380 Level FlightAware
06:36AM -36.9990 145.6840 54° Northeast 443 510 27,200 1,440 Climbing FlightAware
06:37AM -36.9470 145.7740 54° Northeast 448 516 28,100 1,320 Climbing FlightAware
06:37AM -36.8990 145.8570 54° Northeast 454 522 29,000 1,380 Climbing FlightAware
06:38AM -36.8657 145.9131 54° Northeast 452 520 29,600 1,320 Climbing Aus ATC (RADAR)
06:38AM -36.8430 145.9530 54° Northeast 458 527 30,000 1,140 Climbing FlightAware
06:39AM -36.7950 146.0360 54° Northeast 462 532 30,800 1,320 Climbing FlightAware
06:39AM -36.7652 146.0846 54° Northeast 463 533 31,300 1,020 Climbing Aus ATC (RADAR)
06:39AM -36.7430 146.1240 54° Northeast 466 536 31,500 1,020 Climbing FlightAware
06:40AM -36.7078 146.1819 54° Northeast 466 536 32,100 1,200 Climbing Aus ATC (RADAR)
06:40AM -36.6840 146.2250 54° Northeast 467 537 32,400 1,320 Climbing FlightAware
06:41AM -36.6330 146.3120 54° Northeast 463 533 33,500 1,560 Climbing FlightAware
06:41AM -36.6002 146.3652 54° Northeast 461 531 34,100 1,260 Climbing Aus ATC (RADAR)
06:41AM -36.5814 146.3977 54° Northeast 461 531 34,300 540 Climbing Aus ATC (RADAR)
06:41AM -36.5770 146.4080 54° Northeast 462 532 34,300 1,200 Level FlightAware
06:42AM -36.5372 146.4720 54° Northeast 460 529 35,000 1,020 Climbing Aus ATC (RADAR)
06:42AM -36.5280 146.4900 54° Northeast 464 534 35,000 300 Level FlightAware
06:43AM -36.4740 146.5810 54° Northeast 474 545 35,300 840 Climbing FlightAware
06:43AM -36.4149 146.6793 54° Northeast 473 544 36,200 1,020 Climbing Aus ATC (RADAR)
06:44AM -36.4180 146.6750 54° Northeast 474 545 36,100 360 Descending FlightAware
06:44AM -36.3640 146.7660 54° Northeast 480 552 36,500 540 Climbing FlightAware
06:45AM -36.3291 146.8224 54° Northeast 479 551 36,700 600 Climbing Aus ATC (RADAR)
06:45AM -36.3110 146.8560 54° Northeast 484 557 36,900 660 Climbing FlightAware
06:45AM -36.2827 146.8998 54° Northeast 478 550 37,100 120 Climbing Aus ATC (RADAR)
06:46AM -36.2510 146.9550 54° Northeast 479 551 37,000  Descending FlightAware
06:46AM -36.2095 147.0200 54° Northeast 477 549 37,100  Climbing Aus ATC (RADAR)
06:46AM -36.1980 147.0430 54° Northeast 478 550 37,000  Descending FlightAware
06:47AM -36.1444 147.1294 54° Northeast 472 543 37,100  Climbing Aus ATC (RADAR)
06:47AM -36.1380 147.1430 54° Northeast 477 549 37,000 -180 Descending FlightAware
06:48AM -36.0860 147.2290 53° Northeast 475 547 37,000  Level FlightAware
06:48AM -36.0280 147.3260 54° Northeast 473 544 37,000  Level FlightAware
06:49AM -35.9850 147.3960 53° Northeast 472 543 37,000 60 Level FlightAware
06:50AM -35.9357 147.4752 53° Northeast 462 532 37,100  Climbing Aus ATC (RADAR)
06:50AM -35.9230 147.4980 53° Northeast 448 516 37,000 -180 Descending FlightAware
06:50AM -35.8850 147.5600 53° Northeast 441 507 37,000 120 Level FlightAware
06:50AM -35.8745 147.5754 53° Northeast 437 503 37,100  Climbing Aus ATC (RADAR)
06:51AM -35.8210 147.6660 53° Northeast 444 511 37,000  Descending FlightAware
06:52AM -35.7681 147.7495 53° Northeast 455 524 37,100  Climbing Aus ATC (RADAR)
06:52AM -35.7640 147.7590 53° Northeast 460 529 37,000 -180 Descending FlightAware
06:53AM -35.7090 147.8480 53° Northeast 473 544 37,000  Level FlightAware
06:53AM -35.6830 147.8886 53° Northeast 468 539 37,000 -480 Level Aus ATC (RADAR)
06:53AM -35.6600 147.9270 53° Northeast 469 540 36,700 -780 Descending FlightAware
06:54AM -35.5840 148.0500 53° Northeast 464 534 36,000 -600 Descending FlightAware
06:55AM -35.5522 148.1004 53° Northeast 464 534 36,000 120 Level Aus ATC (RADAR)
06:55AM -35.5325 148.1326 53° Northeast 467 537 36,100  Climbing Aus ATC (RADAR)
06:55AM -35.5330 148.1340 53° Northeast 467 537 36,000  Descending FlightAware
06:55AM -35.4930 148.1962 53° Northeast 466 536 36,100  Climbing Aus ATC (RADAR)
06:56AM -35.4720 148.2310 53° Northeast 464 534 36,000  Descending FlightAware
06:56AM -35.4209 148.3122 53° Northeast 463 533 36,100  Climbing Aus ATC (RADAR)
06:56AM -35.4210 148.3140 53° Northeast 464 534 36,000  Descending FlightAware
06:57AM -35.3614 148.4073 53° Northeast 465 535 36,100  Climbing Aus ATC (RADAR)
06:57AM -35.3610 148.4100 53° Northeast 473 544 36,000 -180 Descending FlightAware
06:58AM -35.3090 148.4920 52° Northeast 473 544 36,000 60 Level FlightAware
06:58AM -35.2684 148.5562 52° Northeast 470 541 36,100  Climbing Aus ATC (RADAR)
06:58AM -35.2540 148.5800 52° Northeast 480 552 36,000  Descending FlightAware
06:59AM -35.2212 148.6316 52° Northeast 474 545 36,100  Climbing Aus ATC (RADAR)
06:59AM -35.1940 148.6760 52° Northeast 482 555 36,000  Descending FlightAware
07:00AM -35.1534 148.7392 52° Northeast 477 549 36,100  Climbing Aus ATC (RADAR)
07:00AM -35.1370 148.7660 52° Northeast 482 555 36,000  Descending FlightAware
07:00AM -35.0786 148.8576 52° Northeast 476 548 36,100  Climbing Aus ATC (RADAR)
07:01AM -35.0760 148.8630 52° Northeast 483 556 36,000 -1,800 Descending FlightAware
07:01AM -35.0200 148.9500 52° Northeast 476 548 34,800 -1,860 Descending FlightAware
07:01AM -34.9975 148.9855 52° Northeast 468 539 34,300 -2,160 Descending Aus ATC (RADAR)
07:02AM -34.9620 149.0410 52° Northeast 470 541 33,200 -2,220 Descending FlightAware
07:03AM -34.9090 149.1260 53° Northeast 462 532 31,800 -2,040 Descending FlightAware
07:03AM -34.8852 149.1622 53° Northeast 451 519 31,300 -2,100 Descending Aus ATC (RADAR)
07:03AM -34.8580 149.2050 53° Northeast 453 521 30,400 -2,220 Descending FlightAware
07:04AM -34.7980 149.2990 52° Northeast 452 520 28,800 -2,100 Descending FlightAware
07:05AM -34.7565 149.3626 52° Northeast 446 513 27,800 -2,100 Descending Aus ATC (RADAR)
07:05AM -34.7470 149.3790 52° Northeast 462 532 27,400 -2,100 Descending FlightAware
07:05AM -34.7170 149.4392 52° Northeast 451 519 26,600 -2,100 Descending Aus ATC (RADAR)
07:05AM -34.7027 149.4739 63° Northeast 448 516 26,000 -2,820 Descending Aus ATC (RADAR)
07:05AM -34.7040 149.4710 63° Northeast 458 527 25,900 -2,400 Descending FlightAware
07:06AM -34.6686 149.5525 63° Northeast 440 506 24,600 -2,280 Descending Aus ATC (RADAR)
07:06AM -34.6610 149.5700 63° Northeast 444 511 24,200 -2,040 Descending FlightAware
07:07AM -34.6240 149.6550 62° Northeast 428 493 22,900 -2,100 Descending FlightAware
07:07AM -34.6029 149.7023 62° Northeast 414 476 22,100 -2,280 Descending Aus ATC (RADAR)
07:08AM -34.5820 149.7490 62° Northeast 413 475 21,200 -2,340 Descending FlightAware
07:08AM -34.5460 149.8310 62° Northeast 404 465 19,600 -2,220 Descending FlightAware
07:09AM -34.5100 149.9132 62° Northeast 387 445 18,300 -2,100 Descending Aus ATC (RADAR)
07:09AM -34.5120 149.9100 62° Northeast 398 458 18,200 -2,040 Descending FlightAware
07:10AM -34.4740 149.9960 62° Northeast 394 453 16,800 -1,920 Descending FlightAware
07:10AM -34.4585 150.0302 62° Northeast 382 440 16,300 -2,040 Descending Aus ATC (RADAR)
07:10AM -34.4458 150.0588 62° Northeast 378 435 15,800 -1,920 Descending Aus ATC (RADAR)
07:10AM -34.4410 150.0700 62° Northeast 383 441 15,500 -1,920 Descending FlightAware
07:11AM -34.4163 150.1246 62° Northeast 370 426 14,700 -2,040 Descending Aus ATC (RADAR)
07:11AM -34.4030 150.1550 62° Northeast 383 441 14,000 -2,220 Descending FlightAware
07:12AM -34.3709 150.2269 62° Northeast 363 418 12,700 -1,800 Descending Aus ATC (RADAR)
07:12AM -34.3630 150.2450 62° Northeast 371 427 12,400 -1,800 Descending FlightAware
07:13AM -34.3300 150.3190 62° Northeast 366 421 10,900 -2,340 Descending FlightAware
07:13AM -34.3025 150.3802 62° Northeast 351 404 9,900 -1,380 Descending Aus ATC (RADAR)
07:13AM -34.2910 150.4056 61° Northeast 344 396 10,000 300 Climbing Aus ATC (RADAR)
07:13AM -34.2950 150.3980 61° Northeast 339 390 10,000 -300 Level FlightAware
07:14AM -34.2840 150.4220 61° Northeast 323 372 9,900  Descending FlightAware
07:14AM -34.2670 150.4597 61° Northeast 308 354 10,000  Climbing Aus ATC (RADAR)
07:14AM -34.2670 150.4600 61° Northeast 302 348 9,900 -1,080 Descending FlightAware
07:15AM -34.2480 150.5020 61° Northeast 296 341 9,300 -1,440 Descending FlightAware
07:15AM -34.2290 150.5450 62° Northeast 294 338 8,500 -1,740 Descending FlightAware
07:15AM -34.2116 150.5822 62° Northeast 282 325 8,000 -1,200 Descending Aus ATC (RADAR)
07:15AM -34.2050 150.5930 62° Northeast 286 329 8,000  Level FlightAware
07:16AM -34.1940 150.6120 55° Northeast 268 308 8,000 -540 Level FlightAware
07:17AM -34.1505 150.6887 55° Northeast 238 274 7,300 -780 Descending Aus ATC (RADAR)
07:17AM -34.1440 150.7000 55° Northeast 244 281 7,000 -1,320 Descending FlightAware
07:18AM -34.0953 150.7860 55° Northeast 240 276 5,500 -1,260 Descending Aus ATC (RADAR)
07:18AM -34.0858 150.8026 55° Northeast 237 273 5,300 -840 Descending Aus ATC (RADAR)
07:19AM -34.0770 150.8180 55° Northeast 233 268 5,000 -1,020 Descending FlightAware
07:19AM -34.0520 150.8620 56° Northeast 230 265 4,300 -1,020 Descending FlightAware
07:20AM -34.0283 150.9034 56° Northeast 220 253 3,800 -1,020 Descending Aus ATC (RADAR)
07:20AM -34.0196 150.9186 55° Northeast 217 250 3,500 -960 Descending Aus ATC (RADAR)
07:21AM -33.9995 150.9532 55° Northeast 211 243 3,000 -540 Descending Aus ATC (RADAR)
07:22AM -33.9804 151.0071 67° East 183 211 2,700 -420 Descending Aus ATC (RADAR)
07:22AM -33.9800 151.0070 67° East 187 215 2,600 -1,200 Descending FlightAware
07:22AM -33.9724 151.0423 67° East 181 208 2,000 -1,020 Descending Aus ATC (RADAR)
07:23AM -33.9615 151.0886 74° East 160 184 1,300 -840 Descending Aus ATC (RADAR)
07:23AM -33.9589 151.0997 74° East 145 167 1,100 -720 Descending Aus ATC (RADAR)
07:24AM -33.9531 151.1242 74° East 128 147 700 -540 Descending Aus ATC (RADAR)
07:24AM -33.9520 151.1280 74° East 134 154 600 -480 Descending FlightAware
07:25AM -33.9470 151.1490 74° East 138 159 300 -600 Descending FlightAware
07:25AM -33.9460 151.1530 73° East 139 160 200 -600 Descending FlightAware
07:25AM -33.9400 151.1790 74° East 60 69 -600 Descending FlightAware